sensor_id;sensor_type;location;lat;lon;timestamp;temperature;humidity
34145;HTU21D;69555;53.014;8.886;2024-03-23T00:55:10;7.94;102.60
34145;HTU21D;69555;53.014;8.886;2024-03-23T00:57:36;7.64;103.76
34145;HTU21D;69555;53.014;8.886;2024-03-23T01:00:02;7.70;103.58
34145;HTU21D;69555;53.014;8.886;2024-03-23T01:02:28;7.41;105.43
34145;HTU21D;69555;53.014;8.886;2024-03-23T01:04:53;7.94;102.25
34145;HTU21D;69555;53.014;8.886;2024-03-23T01:07:18;7.92;102.01
34145;HTU21D;69555;53.014;8.886;2024-03-23T01:09:44;7.50;104.11
34145;HTU21D;69555;53.014;8.886;2024-03-23T01:12:09;7.68;103.50
34145;HTU21D;69555;53.014;8.886;2024-03-23T01:14:35;7.47;103.91
34145;HTU21D;69555;53.014;8.886;2024-03-23T01:17:01;7.52;104.23
34145;HTU21D;69555;53.014;8.886;2024-03-23T01:19:27;7.27;105.69
34145;HTU21D;69555;53.014;8.886;2024-03-23T01:21:52;7.52;104.44
34145;HTU21D;69555;53.014;8.886;2024-03-23T01:24:18;7.62;103.35
34145;HTU21D;69555;53.014;8.886;2024-03-23T01:26:43;7.67;102.94
34145;HTU21D;69555;53.014;8.886;2024-03-23T01:29:08;7.43;104.60
34145;HTU21D;69555;53.014;8.886;2024-03-23T01:31:34;7.65;103.83
34145;HTU21D;69555;53.014;8.886;2024-03-23T01:33:59;7.46;104.43
34145;HTU21D;69555;53.014;8.886;2024-03-23T01:36:25;7.71;102.99
34145;HTU21D;69555;53.014;8.886;2024-03-23T01:38:50;7.60;103.28
34145;HTU21D;69555;53.014;8.886;2024-03-23T01:41:17;7.55;103.68
34145;HTU21D;69555;53.014;8.886;2024-03-23T01:43:43;7.45;104.31
34145;HTU21D;69555;53.014;8.886;2024-03-23T01:46:08;7.50;103.97
34145;HTU21D;69555;53.014;8.886;2024-03-23T01:48:34;7.43;104.26
34145;HTU21D;69555;53.014;8.886;2024-03-23T01:50:59;7.54;103.55
34145;HTU21D;69555;53.014;8.886;2024-03-23T01:53:25;7.53;103.93
34145;HTU21D;69555;53.014;8.886;2024-03-23T01:55:50;7.71;102.78
34145;HTU21D;69555;53.014;8.886;2024-03-23T01:58:16;7.69;102.98
34145;HTU21D;69555;53.014;8.886;2024-03-23T02:00:42;7.43;104.15
34145;HTU21D;69555;53.014;8.886;2024-03-23T02:03:37;7.57;104.03
34145;HTU21D;69555;53.014;8.886;2024-03-23T02:06:02;7.61;103.98
34145;HTU21D;69555;53.014;8.886;2024-03-23T02:08:29;7.65;103.60
34145;HTU21D;69555;53.014;8.886;2024-03-23T02:10:55;7.65;103.80
34145;HTU21D;69555;53.014;8.886;2024-03-23T02:13:21;7.54;104.12
34145;HTU21D;69555;53.014;8.886;2024-03-23T02:15:46;7.57;103.94
34145;HTU21D;69555;53.014;8.886;2024-03-23T02:18:12;7.63;102.99
34145;HTU21D;69555;53.014;8.886;2024-03-23T02:20:38;7.28;104.54
34145;HTU21D;69555;53.014;8.886;2024-03-23T02:23:04;7.23;105.24
34145;HTU21D;69555;53.014;8.886;2024-03-23T02:25:32;7.44;104.25
34145;HTU21D;69555;53.014;8.886;2024-03-23T02:27:58;7.44;103.88
34145;HTU21D;69555;53.014;8.886;2024-03-23T02:30:25;7.50;103.46
34145;HTU21D;69555;53.014;8.886;2024-03-23T02:32:50;7.26;104.66
34145;HTU21D;69555;53.014;8.886;2024-03-23T02:35:16;7.20;104.95
34145;HTU21D;69555;53.014;8.886;2024-03-23T02:37:41;7.16;105.62
34145;HTU21D;69555;53.014;8.886;2024-03-23T02:40:07;7.01;105.98
34145;HTU21D;69555;53.014;8.886;2024-03-23T02:42:32;7.12;105.50
34145;HTU21D;69555;53.014;8.886;2024-03-23T02:44:58;7.01;105.94
34145;HTU21D;69555;53.014;8.886;2024-03-23T02:47:24;7.07;106.00
34145;HTU21D;69555;53.014;8.886;2024-03-23T02:49:49;6.87;106.68
34145;HTU21D;69555;53.014;8.886;2024-03-23T02:52:15;6.79;106.93
34145;HTU21D;69555;53.014;8.886;2024-03-23T02:54:40;6.76;107.40
34145;HTU21D;69555;53.014;8.886;2024-03-23T02:57:10;6.74;107.85
34145;HTU21D;69555;53.014;8.886;2024-03-23T02:59:35;6.84;107.04
34145;HTU21D;69555;53.014;8.886;2024-03-23T03:02:01;7.03;106.28
34145;HTU21D;69555;53.014;8.886;2024-03-23T03:04:26;7.01;106.26
34145;HTU21D;69555;53.014;8.886;2024-03-23T03:06:52;6.68;107.80
34145;HTU21D;69555;53.014;8.886;2024-03-23T03:09:17;6.86;107.13
34145;HTU21D;69555;53.014;8.886;2024-03-23T03:11:43;6.83;107.15
34145;HTU21D;69555;53.014;8.886;2024-03-23T03:14:08;6.74;107.67
34145;HTU21D;69555;53.014;8.886;2024-03-23T03:16:34;6.95;106.60
34145;HTU21D;69555;53.014;8.886;2024-03-23T03:18:59;7.07;105.69
34145;HTU21D;69555;53.014;8.886;2024-03-23T03:21:25;6.83;106.30
34145;HTU21D;69555;53.014;8.886;2024-03-23T03:23:50;6.84;106.49
34145;HTU21D;69555;53.014;8.886;2024-03-23T03:26:17;6.87;106.08
34145;HTU21D;69555;53.014;8.886;2024-03-23T03:28:43;6.72;106.59
34145;HTU21D;69555;53.014;8.886;2024-03-23T03:31:09;6.70;107.64
34145;HTU21D;69555;53.014;8.886;2024-03-23T03:33:34;6.88;106.33
34145;HTU21D;69555;53.014;8.886;2024-03-23T03:36:00;6.66;106.88
34145;HTU21D;69555;53.014;8.886;2024-03-23T03:38:25;6.50;108.07
34145;HTU21D;69555;53.014;8.886;2024-03-23T03:40:51;6.48;108.40
34145;HTU21D;69555;53.014;8.886;2024-03-23T03:43:17;6.71;107.66
34145;HTU21D;69555;53.014;8.886;2024-03-23T03:45:51;6.58;107.78
34145;HTU21D;69555;53.014;8.886;2024-03-23T03:48:17;6.69;107.68
34145;HTU21D;69555;53.014;8.886;2024-03-23T03:50:42;6.55;107.58
34145;HTU21D;69555;53.014;8.886;2024-03-23T03:53:09;6.74;107.34
34145;HTU21D;69555;53.014;8.886;2024-03-23T03:55:34;6.91;106.12
34145;HTU21D;69555;53.014;8.886;2024-03-23T03:58:00;6.67;106.24
34145;HTU21D;69555;53.014;8.886;2024-03-23T04:00:25;6.36;108.45
34145;HTU21D;69555;53.014;8.886;2024-03-23T04:02:50;6.31;108.81
34145;HTU21D;69555;53.014;8.886;2024-03-23T04:05:16;6.28;109.04
34145;HTU21D;69555;53.014;8.886;2024-03-23T04:07:42;6.31;109.15
34145;HTU21D;69555;53.014;8.886;2024-03-23T04:10:07;6.28;109.42
34145;HTU21D;69555;53.014;8.886;2024-03-23T04:12:34;6.31;109.36
34145;HTU21D;69555;53.014;8.886;2024-03-23T04:14:59;6.22;109.76
34145;HTU21D;69555;53.014;8.886;2024-03-23T04:17:25;6.25;110.01
34145;HTU21D;69555;53.014;8.886;2024-03-23T04:19:52;6.44;108.28
34145;HTU21D;69555;53.014;8.886;2024-03-23T04:22:19;6.59;107.93
34145;HTU21D;69555;53.014;8.886;2024-03-23T04:24:44;6.54;108.11
34145;HTU21D;69555;53.014;8.886;2024-03-23T04:27:10;6.65;106.78
34145;HTU21D;69555;53.014;8.886;2024-03-23T04:29:36;6.57;107.66
34145;HTU21D;69555;53.014;8.886;2024-03-23T04:32:01;6.30;108.77
34145;HTU21D;69555;53.014;8.886;2024-03-23T04:34:27;6.39;107.86
34145;HTU21D;69555;53.014;8.886;2024-03-23T04:36:52;6.40;108.00
34145;HTU21D;69555;53.014;8.886;2024-03-23T04:39:18;6.48;107.36
34145;HTU21D;69555;53.014;8.886;2024-03-23T04:41:44;6.57;107.18
34145;HTU21D;69555;53.014;8.886;2024-03-23T04:44:10;6.49;107.40
34145;HTU21D;69555;53.014;8.886;2024-03-23T04:46:36;6.48;106.82
34145;HTU21D;69555;53.014;8.886;2024-03-23T04:49:01;6.29;108.11
34145;HTU21D;69555;53.014;8.886;2024-03-23T04:51:35;6.19;108.33
34145;HTU21D;69555;53.014;8.886;2024-03-23T04:54:02;6.19;108.74
34145;HTU21D;69555;53.014;8.886;2024-03-23T04:56:28;6.22;108.08
34145;HTU21D;69555;53.014;8.886;2024-03-23T04:58:53;6.13;108.88
34145;HTU21D;69555;53.014;8.886;2024-03-23T05:01:19;6.08;109.11
34145;HTU21D;69555;53.014;8.886;2024-03-23T05:03:44;6.37;107.62
34145;HTU21D;69555;53.014;8.886;2024-03-23T05:06:10;6.24;108.75
34145;HTU21D;69555;53.014;8.886;2024-03-23T05:08:35;6.24;108.03
34145;HTU21D;69555;53.014;8.886;2024-03-23T05:11:01;6.51;107.16
34145;HTU21D;69555;53.014;8.886;2024-03-23T05:13:26;6.37;107.09
34145;HTU21D;69555;53.014;8.886;2024-03-23T05:15:53;6.24;108.07
34145;HTU21D;69555;53.014;8.886;2024-03-23T05:18:19;6.08;108.54
34145;HTU21D;69555;53.014;8.886;2024-03-23T05:20:44;6.16;108.79
34145;HTU21D;69555;53.014;8.886;2024-03-23T05:23:10;6.38;106.92
34145;HTU21D;69555;53.014;8.886;2024-03-23T05:25:35;6.13;108.01
34145;HTU21D;69555;53.014;8.886;2024-03-23T05:28:00;6.09;108.20
34145;HTU21D;69555;53.014;8.886;2024-03-23T05:30:26;6.07;108.26
34145;HTU21D;69555;53.014;8.886;2024-03-23T05:32:51;6.02;108.63
34145;HTU21D;69555;53.014;8.886;2024-03-23T05:35:17;5.99;108.37
34145;HTU21D;69555;53.014;8.886;2024-03-23T05:37:42;5.94;108.84
34145;HTU21D;69555;53.014;8.886;2024-03-23T05:40:09;5.95;108.97
34145;HTU21D;69555;53.014;8.886;2024-03-23T05:42:35;5.96;108.24
34145;HTU21D;69555;53.014;8.886;2024-03-23T05:45:00;5.99;108.11
34145;HTU21D;69555;53.014;8.886;2024-03-23T05:47:26;6.09;107.64
34145;HTU21D;69555;53.014;8.886;2024-03-23T05:49:51;5.77;109.04
34145;HTU21D;69555;53.014;8.886;2024-03-23T05:52:17;5.86;108.51
34145;HTU21D;69555;53.014;8.886;2024-03-23T05:54:43;5.95;107.69
34145;HTU21D;69555;53.014;8.886;2024-03-23T05:57:09;5.74;108.99
34145;HTU21D;69555;53.014;8.886;2024-03-23T05:59:34;5.84;107.88
34145;HTU21D;69555;53.014;8.886;2024-03-23T06:02:00;5.67;109.49
34145;HTU21D;69555;53.014;8.886;2024-03-23T06:04:25;5.71;108.86
34145;HTU21D;69555;53.014;8.886;2024-03-23T06:06:51;5.78;108.45
34145;HTU21D;69555;53.014;8.886;2024-03-23T06:09:20;5.84;108.30
34145;HTU21D;69555;53.014;8.886;2024-03-23T06:11:45;5.96;107.14
34145;HTU21D;69555;53.014;8.886;2024-03-23T06:14:11;5.96;107.14
34145;HTU21D;69555;53.014;8.886;2024-03-23T06:16:37;6.11;106.73
34145;HTU21D;69555;53.014;8.886;2024-03-23T06:19:02;6.02;107.24
34145;HTU21D;69555;53.014;8.886;2024-03-23T06:21:29;6.33;106.01
34145;HTU21D;69555;53.014;8.886;2024-03-23T06:23:55;7.20;101.40
34145;HTU21D;69555;53.014;8.886;2024-03-23T06:26:21;8.44;95.06
34145;HTU21D;69555;53.014;8.886;2024-03-23T06:28:47;9.23;90.35
34145;HTU21D;69555;53.014;8.886;2024-03-23T06:31:13;10.34;84.61
34145;HTU21D;69555;53.014;8.886;2024-03-23T06:33:38;11.98;78.75
34145;HTU21D;69555;53.014;8.886;2024-03-23T06:36:05;13.99;71.89
34145;HTU21D;69555;53.014;8.886;2024-03-23T06:38:31;14.04;67.90
34145;HTU21D;69555;53.014;8.886;2024-03-23T06:40:56;14.60;66.01
34145;HTU21D;69555;53.014;8.886;2024-03-23T06:43:22;15.29;62.04
34145;HTU21D;69555;53.014;8.886;2024-03-23T06:45:53;15.61;61.83
34145;HTU21D;69555;53.014;8.886;2024-03-23T06:48:19;17.24;56.48
34145;HTU21D;69555;53.014;8.886;2024-03-23T06:50:45;17.01;56.78
34145;HTU21D;69555;53.014;8.886;2024-03-23T06:53:14;18.72;52.22
34145;HTU21D;69555;53.014;8.886;2024-03-23T06:55:40;17.82;54.14
34145;HTU21D;69555;53.014;8.886;2024-03-23T06:58:06;18.28;52.75
34145;HTU21D;69555;53.014;8.886;2024-03-23T07:00:32;20.06;48.91
34145;HTU21D;69555;53.014;8.886;2024-03-23T07:02:58;19.32;50.27
34145;HTU21D;69555;53.014;8.886;2024-03-23T07:05:23;18.82;50.57
34145;HTU21D;69555;53.014;8.886;2024-03-23T07:07:49;19.25;49.73
34145;HTU21D;69555;53.014;8.886;2024-03-23T07:10:14;20.16;46.89
34145;HTU21D;69555;53.014;8.886;2024-03-23T07:12:40;18.20;52.62
34145;HTU21D;69555;53.014;8.886;2024-03-23T07:15:06;17.29;56.78
34145;HTU21D;69555;53.014;8.886;2024-03-23T07:17:33;18.17;52.07
34145;HTU21D;69555;53.014;8.886;2024-03-23T07:20:00;18.11;53.93
34145;HTU21D;69555;53.014;8.886;2024-03-23T07:22:29;17.81;53.04
34145;HTU21D;69555;53.014;8.886;2024-03-23T07:24:55;15.89;59.40
34145;HTU21D;69555;53.014;8.886;2024-03-23T07:27:20;16.25;58.35
34145;HTU21D;69555;53.014;8.886;2024-03-23T07:29:46;15.88;59.37
34145;HTU21D;69555;53.014;8.886;2024-03-23T07:32:12;15.75;59.01
34145;HTU21D;69555;53.014;8.886;2024-03-23T07:34:37;15.39;61.08
34145;HTU21D;69555;53.014;8.886;2024-03-23T07:37:03;16.74;58.55
34145;HTU21D;69555;53.014;8.886;2024-03-23T07:39:28;15.87;58.89
34145;HTU21D;69555;53.014;8.886;2024-03-23T07:41:54;14.91;62.13
34145;HTU21D;69555;53.014;8.886;2024-03-23T07:44:19;16.30;58.65
34145;HTU21D;69555;53.014;8.886;2024-03-23T07:46:45;15.77;60.09
34145;HTU21D;69555;53.014;8.886;2024-03-23T07:49:10;16.15;59.19
34145;HTU21D;69555;53.014;8.886;2024-03-23T07:51:35;14.87;63.05
34145;HTU21D;69555;53.014;8.886;2024-03-23T07:54:01;15.77;59.48
34145;HTU21D;69555;53.014;8.886;2024-03-23T07:56:26;15.01;61.25
34145;HTU21D;69555;53.014;8.886;2024-03-23T07:58:52;16.87;56.68
34145;HTU21D;69555;53.014;8.886;2024-03-23T08:01:17;14.38;64.10
34145;HTU21D;69555;53.014;8.886;2024-03-23T08:03:44;12.79;69.68
34145;HTU21D;69555;53.014;8.886;2024-03-23T08:06:14;12.63;70.00
34145;HTU21D;69555;53.014;8.886;2024-03-23T08:08:47;12.95;70.43
34145;HTU21D;69555;53.014;8.886;2024-03-23T08:11:14;12.55;71.03
34145;HTU21D;69555;53.014;8.886;2024-03-23T08:13:41;12.74;72.58
34145;HTU21D;69555;53.014;8.886;2024-03-23T08:16:07;13.92;68.84
34145;HTU21D;69555;53.014;8.886;2024-03-23T08:18:34;12.87;70.69
34145;HTU21D;69555;53.014;8.886;2024-03-23T08:21:05;13.40;67.16
34145;HTU21D;69555;53.014;8.886;2024-03-23T08:23:33;14.20;65.06
34145;HTU21D;69555;53.014;8.886;2024-03-23T08:26:04;13.19;67.75
34145;HTU21D;69555;53.014;8.886;2024-03-23T08:28:31;12.40;70.91
34145;HTU21D;69555;53.014;8.886;2024-03-23T08:30:57;11.00;74.30
34145;HTU21D;69555;53.014;8.886;2024-03-23T08:33:23;11.93;73.45
34145;HTU21D;69555;53.014;8.886;2024-03-23T08:35:56;13.02;69.60
34145;HTU21D;69555;53.014;8.886;2024-03-23T08:38:22;12.00;71.58
34145;HTU21D;69555;53.014;8.886;2024-03-23T08:40:48;11.09;74.54
34145;HTU21D;69555;53.014;8.886;2024-03-23T08:43:13;11.07;74.89
34145;HTU21D;69555;53.014;8.886;2024-03-23T08:45:39;10.80;76.74
34145;HTU21D;69555;53.014;8.886;2024-03-23T08:48:04;10.50;76.44
34145;HTU21D;69555;53.014;8.886;2024-03-23T08:50:30;10.00;78.27
34145;HTU21D;69555;53.014;8.886;2024-03-23T08:52:55;9.79;76.24
34145;HTU21D;69555;53.014;8.886;2024-03-23T08:55:21;9.53;79.25
34145;HTU21D;69555;53.014;8.886;2024-03-23T08:57:46;9.46;79.73
34145;HTU21D;69555;53.014;8.886;2024-03-23T09:00:12;9.53;79.21
34145;HTU21D;69555;53.014;8.886;2024-03-23T09:02:38;9.79;80.03
34145;HTU21D;69555;53.014;8.886;2024-03-23T09:05:04;10.70;77.52
34145;HTU21D;69555;53.014;8.886;2024-03-23T09:07:31;11.02;73.53
34145;HTU21D;69555;53.014;8.886;2024-03-23T09:09:56;11.47;72.43
34145;HTU21D;69555;53.014;8.886;2024-03-23T09:12:22;11.67;72.73
34145;HTU21D;69555;53.014;8.886;2024-03-23T09:14:47;11.33;72.42
34145;HTU21D;69555;53.014;8.886;2024-03-23T09:17:12;11.41;70.30
34145;HTU21D;69555;53.014;8.886;2024-03-23T09:19:38;12.06;70.77
34145;HTU21D;69555;53.014;8.886;2024-03-23T09:22:05;11.89;70.28
34145;HTU21D;69555;53.014;8.886;2024-03-23T09:24:30;12.34;72.92
34145;HTU21D;69555;53.014;8.886;2024-03-23T09:26:57;11.92;70.97
34145;HTU21D;69555;53.014;8.886;2024-03-23T09:29:23;11.63;71.11
34145;HTU21D;69555;53.014;8.886;2024-03-23T09:31:48;10.99;69.71
34145;HTU21D;69555;53.014;8.886;2024-03-23T09:34:14;10.18;77.16
34145;HTU21D;69555;53.014;8.886;2024-03-23T09:36:40;9.25;80.17
34145;HTU21D;69555;53.014;8.886;2024-03-23T09:39:07;8.81;83.06
34145;HTU21D;69555;53.014;8.886;2024-03-23T09:41:34;8.58;83.81
34145;HTU21D;69555;53.014;8.886;2024-03-23T09:44:00;8.21;86.40
34145;HTU21D;69555;53.014;8.886;2024-03-23T09:46:26;8.32;86.89
34145;HTU21D;69555;53.014;8.886;2024-03-23T09:48:55;8.45;86.74
34145;HTU21D;69555;53.014;8.886;2024-03-23T09:51:21;8.53;85.74
34145;HTU21D;69555;53.014;8.886;2024-03-23T09:53:46;8.77;85.70
34145;HTU21D;69555;53.014;8.886;2024-03-23T09:56:12;8.91;83.03
34145;HTU21D;69555;53.014;8.886;2024-03-23T09:58:37;9.23;85.13
34145;HTU21D;69555;53.014;8.886;2024-03-23T10:01:03;9.42;82.56
34145;HTU21D;69555;53.014;8.886;2024-03-23T10:03:29;9.32;80.93
34145;HTU21D;69555;53.014;8.886;2024-03-23T10:06:04;9.17;81.94
34145;HTU21D;69555;53.014;8.886;2024-03-23T10:08:30;9.17;81.78
34145;HTU21D;69555;53.014;8.886;2024-03-23T10:10:56;9.41;82.32
34145;HTU21D;69555;53.014;8.886;2024-03-23T10:13:28;9.94;78.81
34145;HTU21D;69555;53.014;8.886;2024-03-23T10:15:59;10.13;78.21
34145;HTU21D;69555;53.014;8.886;2024-03-23T10:18:25;10.56;76.25
34145;HTU21D;69555;53.014;8.886;2024-03-23T10:23:33;10.82;76.59
34145;HTU21D;69555;53.014;8.886;2024-03-23T10:28:54;10.18;77.06
34145;HTU21D;69555;53.014;8.886;2024-03-23T10:31:20;9.76;80.17
34145;HTU21D;69555;53.014;8.886;2024-03-23T10:33:47;10.22;79.63
34145;HTU21D;69555;53.014;8.886;2024-03-23T10:36:13;10.34;75.80
34145;HTU21D;69555;53.014;8.886;2024-03-23T10:38:43;10.56;74.80
34145;HTU21D;69555;53.014;8.886;2024-03-23T10:41:09;10.35;72.03
34145;HTU21D;69555;53.014;8.886;2024-03-23T10:43:36;10.79;73.20
34145;HTU21D;69555;53.014;8.886;2024-03-23T10:46:02;11.14;72.74
34145;HTU21D;69555;53.014;8.886;2024-03-23T10:48:28;11.09;69.29
34145;HTU21D;69555;53.014;8.886;2024-03-23T10:50:53;10.90;70.41
34145;HTU21D;69555;53.014;8.886;2024-03-23T10:53:21;10.56;70.81
34145;HTU21D;69555;53.014;8.886;2024-03-23T10:55:50;10.37;69.61
34145;HTU21D;69555;53.014;8.886;2024-03-23T10:58:29;10.27;70.45
34145;HTU21D;69555;53.014;8.886;2024-03-23T11:00:55;10.39;71.93
34145;HTU21D;69555;53.014;8.886;2024-03-23T11:03:36;10.14;73.95
34145;HTU21D;69555;53.014;8.886;2024-03-23T11:06:03;10.18;75.32
34145;HTU21D;69555;53.014;8.886;2024-03-23T11:08:33;10.39;77.44
34145;HTU21D;69555;53.014;8.886;2024-03-23T11:11:18;10.23;77.08
34145;HTU21D;69555;53.014;8.886;2024-03-23T11:13:51;10.05;75.24
34145;HTU21D;69555;53.014;8.886;2024-03-23T11:16:23;10.15;76.96
34145;HTU21D;69555;53.014;8.886;2024-03-23T11:18:49;10.12;74.73
34145;HTU21D;69555;53.014;8.886;2024-03-23T11:21:53;10.22;74.52
34145;HTU21D;69555;53.014;8.886;2024-03-23T11:24:19;10.23;74.80
34145;HTU21D;69555;53.014;8.886;2024-03-23T11:26:46;10.78;75.55
34145;HTU21D;69555;53.014;8.886;2024-03-23T11:29:13;10.84;73.67
34145;HTU21D;69555;53.014;8.886;2024-03-23T11:31:39;10.64;71.67
34145;HTU21D;69555;53.014;8.886;2024-03-23T11:34:10;10.63;71.79
34145;HTU21D;69555;53.014;8.886;2024-03-23T11:36:36;10.85;71.00
34145;HTU21D;69555;53.014;8.886;2024-03-23T11:39:12;10.77;71.78
34145;HTU21D;69555;53.014;8.886;2024-03-23T11:41:48;10.49;69.29
34145;HTU21D;69555;53.014;8.886;2024-03-23T11:44:21;10.35;71.35
34145;HTU21D;69555;53.014;8.886;2024-03-23T11:46:50;10.38;71.91
34145;HTU21D;69555;53.014;8.886;2024-03-23T11:51:51;10.09;71.27
34145;HTU21D;69555;53.014;8.886;2024-03-23T11:54:20;9.96;71.62
34145;HTU21D;69555;53.014;8.886;2024-03-23T11:56:58;10.08;71.06
34145;HTU21D;69555;53.014;8.886;2024-03-23T11:59:31;10.15;71.31
34145;HTU21D;69555;53.014;8.886;2024-03-23T12:01:57;10.06;73.48
34145;HTU21D;69555;53.014;8.886;2024-03-23T12:04:29;10.05;72.80
34145;HTU21D;69555;53.014;8.886;2024-03-23T12:09:42;9.92;75.06
34145;HTU21D;69555;53.014;8.886;2024-03-23T12:12:11;9.99;74.46
34145;HTU21D;69555;53.014;8.886;2024-03-23T12:14:40;10.16;76.78
34145;HTU21D;69555;53.014;8.886;2024-03-23T12:17:12;10.08;75.48
34145;HTU21D;69555;53.014;8.886;2024-03-23T12:19:39;9.85;76.86
34145;HTU21D;69555;53.014;8.886;2024-03-23T12:22:05;9.50;77.27
34145;HTU21D;69555;53.014;8.886;2024-03-23T12:24:31;9.03;84.74
34145;HTU21D;69555;53.014;8.886;2024-03-23T12:27:00;7.83;84.18
34145;HTU21D;69555;53.014;8.886;2024-03-23T12:29:29;7.74;86.10
34145;HTU21D;69555;53.014;8.886;2024-03-23T12:32:00;7.69;88.30
34145;HTU21D;69555;53.014;8.886;2024-03-23T12:34:26;7.91;88.72
34145;HTU21D;69555;53.014;8.886;2024-03-23T12:36:51;7.89;88.54
34145;HTU21D;69555;53.014;8.886;2024-03-23T12:39:17;8.11;88.10
34145;HTU21D;69555;53.014;8.886;2024-03-23T12:41:43;7.83;92.01
34145;HTU21D;69555;53.014;8.886;2024-03-23T12:44:09;7.79;91.92
34145;HTU21D;69555;53.014;8.886;2024-03-23T12:46:37;7.88;90.66
34145;HTU21D;69555;53.014;8.886;2024-03-23T12:49:03;7.62;89.00
34145;HTU21D;69555;53.014;8.886;2024-03-23T12:51:28;7.75;87.24
34145;HTU21D;69555;53.014;8.886;2024-03-23T12:53:54;8.35;89.39
34145;HTU21D;69555;53.014;8.886;2024-03-23T12:56:19;8.68;85.44
34145;HTU21D;69555;53.014;8.886;2024-03-23T12:58:45;8.68;85.29
34145;HTU21D;69555;53.014;8.886;2024-03-23T13:01:10;8.47;85.38
34145;HTU21D;69555;53.014;8.886;2024-03-23T13:03:36;8.20;86.17
34145;HTU21D;69555;53.014;8.886;2024-03-23T13:06:01;8.39;85.59
34145;HTU21D;69555;53.014;8.886;2024-03-23T13:08:29;8.12;86.05
34145;HTU21D;69555;53.014;8.886;2024-03-23T13:10:55;8.67;85.48
34145;HTU21D;69555;53.014;8.886;2024-03-23T13:13:20;8.97;83.70
34145;HTU21D;69555;53.014;8.886;2024-03-23T13:15:50;8.74;83.86
34145;HTU21D;69555;53.014;8.886;2024-03-23T13:18:15;8.93;83.76
34145;HTU21D;69555;53.014;8.886;2024-03-23T13:20:41;9.52;85.58
34145;HTU21D;69555;53.014;8.886;2024-03-23T13:23:06;9.60;84.14
34145;HTU21D;69555;53.014;8.886;2024-03-23T13:25:32;9.68;80.74
34145;HTU21D;69555;53.014;8.886;2024-03-23T13:27:58;9.68;79.38
34145;HTU21D;69555;53.014;8.886;2024-03-23T13:30:24;9.62;78.38
34145;HTU21D;69555;53.014;8.886;2024-03-23T13:32:49;9.72;78.69
34145;HTU21D;69555;53.014;8.886;2024-03-23T13:35:15;9.69;79.46
34145;HTU21D;69555;53.014;8.886;2024-03-23T13:37:41;9.71;79.82
34145;HTU21D;69555;53.014;8.886;2024-03-23T13:40:07;9.64;76.58
34145;HTU21D;69555;53.014;8.886;2024-03-23T13:42:33;9.41;78.66
34145;HTU21D;69555;53.014;8.886;2024-03-23T13:44:58;8.68;82.90
34145;HTU21D;69555;53.014;8.886;2024-03-23T13:47:24;7.84;85.13
34145;HTU21D;69555;53.014;8.886;2024-03-23T13:49:49;7.39;85.18
34145;HTU21D;69555;53.014;8.886;2024-03-23T13:52:15;7.34;86.21
34145;HTU21D;69555;53.014;8.886;2024-03-23T13:54:41;7.28;86.16
34145;HTU21D;69555;53.014;8.886;2024-03-23T13:57:11;7.29;87.44
34145;HTU21D;69555;53.014;8.886;2024-03-23T13:59:37;7.22;87.86
34145;HTU21D;69555;53.014;8.886;2024-03-23T14:02:02;6.98;89.64
34145;HTU21D;69555;53.014;8.886;2024-03-23T14:04:28;6.89;90.63
34145;HTU21D;69555;53.014;8.886;2024-03-23T14:06:54;6.90;89.98
34145;HTU21D;69555;53.014;8.886;2024-03-23T14:09:19;6.96;92.02
34145;HTU21D;69555;53.014;8.886;2024-03-23T14:11:48;7.10;90.26
34145;HTU21D;69555;53.014;8.886;2024-03-23T14:14:13;7.25;90.38
34145;HTU21D;69555;53.014;8.886;2024-03-23T14:16:42;7.56;89.40
34145;HTU21D;69555;53.014;8.886;2024-03-23T14:19:07;7.83;88.41
34145;HTU21D;69555;53.014;8.886;2024-03-23T14:21:33;7.91;86.78
34145;HTU21D;69555;53.014;8.886;2024-03-23T14:24:00;8.13;84.89
34145;HTU21D;69555;53.014;8.886;2024-03-23T14:26:26;8.21;83.26
34145;HTU21D;69555;53.014;8.886;2024-03-23T14:28:52;8.45;81.10
34145;HTU21D;69555;53.014;8.886;2024-03-23T14:31:17;8.63;82.58
34145;HTU21D;69555;53.014;8.886;2024-03-23T14:33:43;8.56;82.53
34145;HTU21D;69555;53.014;8.886;2024-03-23T14:36:15;8.73;82.68
34145;HTU21D;69555;53.014;8.886;2024-03-23T14:38:41;8.78;84.63
34145;HTU21D;69555;53.014;8.886;2024-03-23T14:41:07;8.35;84.09
34145;HTU21D;69555;53.014;8.886;2024-03-23T14:43:33;8.09;84.16
34145;HTU21D;69555;53.014;8.886;2024-03-23T14:46:11;8.08;85.06
34145;HTU21D;69555;53.014;8.886;2024-03-23T14:48:38;8.19;84.16
34145;HTU21D;69555;53.014;8.886;2024-03-23T14:51:04;8.33;84.75
34145;HTU21D;69555;53.014;8.886;2024-03-23T14:53:34;8.39;80.76
34145;HTU21D;69555;53.014;8.886;2024-03-23T14:56:00;8.14;81.40
34145;HTU21D;69555;53.014;8.886;2024-03-23T14:58:26;8.30;81.00
34145;HTU21D;69555;53.014;8.886;2024-03-23T15:00:52;8.47;79.11
34145;HTU21D;69555;53.014;8.886;2024-03-23T15:03:18;8.61;78.85
34145;HTU21D;69555;53.014;8.886;2024-03-23T15:05:57;8.66;78.58
34145;HTU21D;69555;53.014;8.886;2024-03-23T15:08:23;8.82;80.23
34145;HTU21D;69555;53.014;8.886;2024-03-23T15:10:49;8.96;79.19
34145;HTU21D;69555;53.014;8.886;2024-03-23T15:13:14;8.98;78.07
34145;HTU21D;69555;53.014;8.886;2024-03-23T15:15:44;8.90;76.86
34145;HTU21D;69555;53.014;8.886;2024-03-23T15:18:13;8.89;76.52
34145;HTU21D;69555;53.014;8.886;2024-03-23T15:20:41;8.88;76.21
34145;HTU21D;69555;53.014;8.886;2024-03-23T15:23:06;9.03;76.86
34145;HTU21D;69555;53.014;8.886;2024-03-23T15:25:32;8.67;77.43
34145;HTU21D;69555;53.014;8.886;2024-03-23T15:27:58;8.26;78.05
34145;HTU21D;69555;53.014;8.886;2024-03-23T15:30:24;8.03;80.25
34145;HTU21D;69555;53.014;8.886;2024-03-23T15:32:50;8.05;81.01
34145;HTU21D;69555;53.014;8.886;2024-03-23T15:35:15;8.05;83.29
34145;HTU21D;69555;53.014;8.886;2024-03-23T15:37:41;7.72;85.22
34145;HTU21D;69555;53.014;8.886;2024-03-23T15:40:07;7.57;87.32
34145;HTU21D;69555;53.014;8.886;2024-03-23T15:42:33;7.60;90.76
34145;HTU21D;69555;53.014;8.886;2024-03-23T15:44:58;7.37;88.29
34145;HTU21D;69555;53.014;8.886;2024-03-23T15:47:24;7.45;90.54
34145;HTU21D;69555;53.014;8.886;2024-03-23T15:49:50;7.39;88.20
34145;HTU21D;69555;53.014;8.886;2024-03-23T15:52:18;7.53;89.21
34145;HTU21D;69555;53.014;8.886;2024-03-23T15:54:44;7.47;90.14
34145;HTU21D;69555;53.014;8.886;2024-03-23T15:57:09;7.38;88.15
34145;HTU21D;69555;53.014;8.886;2024-03-23T15:59:34;7.22;88.22
34145;HTU21D;69555;53.014;8.886;2024-03-23T16:02:01;6.99;88.15
34145;HTU21D;69555;53.014;8.886;2024-03-23T16:04:28;7.18;86.96
34145;HTU21D;69555;53.014;8.886;2024-03-23T16:06:53;7.41;86.59
34145;HTU21D;69555;53.014;8.886;2024-03-23T16:09:19;7.22;84.24
34145;HTU21D;69555;53.014;8.886;2024-03-23T16:11:44;7.44;84.52
34145;HTU21D;69555;53.014;8.886;2024-03-23T16:14:09;7.72;82.01
34145;HTU21D;69555;53.014;8.886;2024-03-23T16:16:35;7.82;81.30
34145;HTU21D;69555;53.014;8.886;2024-03-23T16:19:01;8.01;82.10
34145;HTU21D;69555;53.014;8.886;2024-03-23T16:21:27;7.92;81.24